^^
Meteo Knjazevac Station Historical Data
Daily Summary for June 12, 2021 Units:  English    Metric   Both
Daily Weekly Monthly Yearly Custom
  High: Low: Average:
Temperature: 73.9 °F 50.9 °F 63.2 °F
Dew Point: 65.5 °F 50.6 °F 59.3 °F
Humidity: 99% 70.5% 88%
Wind Speed: 8mph 0mph 1.7mph
Wind Gust: 16mph - -
Wind- - SW
Pressure: 30.11 in 30.05 in -
Precipitation: 0.01 in    
Historical Graphs
 
 
Tabular Data for June 12, 2021
Time Temperature Dew Point Pressure Wind Wind Speed Wind Gust Humidity Rainfall Rate (Hourly) solar Conditions
00:00 55 °F 54.5 °F 30.08 in Calm   2 mph 98% 0.00 in 0 W/m2
00:10 54.7 °F 54.1 °F 30.09 in Calm   2 mph 98% 0.00 in 0 W/m2
00:20 54.3 °F 53.8 °F 30.09 in NW 1 mph 2 mph 98% 0.00 in 0 W/m2
00:30 54.1 °F 53.9 °F 30.09 in West 2 mph 3 mph 99% 0.00 in 0 W/m2
00:40 54 °F 53.7 °F 30.09 in WNW 2 mph 2 mph 99% 0.00 in 0 W/m2
00:50 53.6 °F 53.3 °F 30.09 in West 1 mph 3 mph 99% 0.00 in 0 W/m2
01:00 53.6 °F 53.3 °F 30.09 in West 2 mph 5 mph 99% 0.00 in 0 W/m2
01:10 53.4 °F 53.1 °F 30.09 in Calm   3 mph 99% 0.00 in 0 W/m2
01:20 53.2 °F 53 °F 30.09 in Calm   4 mph 99% 0.00 in 0 W/m2
01:30 53.2 °F 53 °F 30.09 in Calm   2 mph 99% 0.00 in 0 W/m2
01:40 53.2 °F 53 °F 30.09 in Calm   2 mph 99% 0.00 in 0 W/m2
01:50 53.1 °F 52.8 °F 30.09 in Calm   2 mph 99% 0.00 in 0 W/m2
02:00 52.9 °F 52.6 °F 30.09 in Calm   2 mph 99% 0.00 in 0 W/m2
02:10 52.9 °F 52.6 °F 30.09 in NW 1 mph 2 mph 99% 0.00 in 0 W/m2
02:20 52.7 °F 52.4 °F 30.09 in Calm   2 mph 99% 0.00 in 0 W/m2
02:30 52.5 °F 52.2 °F 30.09 in Calm   2 mph 99% 0.00 in 0 W/m2
02:40 52.3 °F 52.1 °F 30.08 in NW 1 mph 2 mph 99% 0.00 in 0 W/m2
02:50 52.3 °F 52.1 °F 30.08 in Calm   2 mph 99% 0.00 in 0 W/m2
03:00 52.3 °F 52.1 °F 30.08 in Calm   2 mph 99% 0.00 in 0 W/m2
03:10 52.3 °F 52.1 °F 30.08 in NNW 1 mph 2 mph 99% 0.00 in 0 W/m2
03:20 52.5 °F 52.2 °F 30.08 in Calm   2 mph 99% 0.00 in 0 W/m2
03:30 52.5 °F 52.2 °F 30.08 in Calm   3 mph 99% 0.00 in 0 W/m2
03:40 52.5 °F 52.2 °F 30.08 in Calm   3 mph 99% 0.00 in 0 W/m2
03:50 52.3 °F 52.1 °F 30.09 in East 1 mph 5 mph 99% 0.00 in 0 W/m2
04:00 52.3 °F 52.1 °F 30.09 in Calm   5 mph 99% 0.00 in 0 W/m2
04:10 52.2 °F 51.9 °F 30.09 in Calm   3 mph 99% 0.00 in 0 W/m2
04:20 51.8 °F 51.5 °F 30.09 in Calm   2 mph 99% 0.00 in 0 W/m2
04:30 51.4 °F 51.2 °F 30.09 in Calm   1 mph 99% 0.00 in 0 W/m2
04:40 51.4 °F 51.2 °F 30.09 in Calm     99% 0.00 in 0 W/m2
04:50 51.3 °F 51 °F 30.09 in Calm   2 mph 99% 0.00 in 3 W/m2
05:00 51.3 °F 51 °F 30.09 in Calm   1 mph 99% 0.00 in 7 W/m2
05:10 51.1 °F 50.8 °F 30.10 in Calm   2 mph 99% 0.00 in 14 W/m2
05:20 51.1 °F 50.8 °F 30.10 in Calm   2 mph 99% 0.00 in 22 W/m2
05:30 50.9 °F 50.6 °F 30.10 in Calm   2 mph 99% 0.00 in 27 W/m2
05:40 50.9 °F 50.6 °F 30.10 in Calm   2 mph 99% 0.00 in 36 W/m2
05:50 51.1 °F 50.8 °F 30.10 in Calm   3 mph 99% 0.00 in 55 W/m2
06:00 51.4 °F 51.2 °F 30.10 in NNE 1 mph 2 mph 99% 0.00 in 86 W/m2
06:10 51.4 °F 51.2 °F 30.10 in Calm   2 mph 99% 0.00 in 119 W/m2
06:20 51.5 °F 51.2 °F 30.10 in Calm   2 mph 99% 0.00 in 136 W/m2
06:30 52 °F 51.7 °F 30.10 in Calm   2 mph 99% 0.00 in 171 W/m2
06:40 52.3 °F 52.1 °F 30.10 in North 1 mph 2 mph 99% 0.00 in 205 W/m2
06:50 53.2 °F 53 °F 30.10 in Calm   5 mph 99% 0.00 in 271 W/m2
07:00 53.8 °F 53.5 °F 30.11 in Calm   2 mph 99% 0.00 in 189 W/m2
07:10 54.7 °F 54.4 °F 30.11 in SE 2 mph 6 mph 99% 0.00 in 275 W/m2
07:20 55.6 °F 55.3 °F 30.10 in SSE 1 mph 5 mph 99% 0.00 in 377 W/m2
07:30 56.5 °F 56.2 °F 30.11 in SSW 1 mph 3 mph 99% 0.00 in 415 W/m2
07:40 57.4 °F 57.1 °F 30.11 in East 2 mph 4 mph 99% 0.00 in 413 W/m2
07:50 58.1 °F 57.9 °F 30.11 in SSE 1 mph 3 mph 99% 0.00 in 427 W/m2
08:00 58.8 °F 58.5 °F 30.11 in South 1 mph 3 mph 99% 0.00 in 469 W/m2
08:10 59.8 °F 59.5 °F 30.11 in SSE 1 mph 5 mph 99% 0.00 in 506 W/m2
08:20 60.8 °F 60.2 °F 30.10 in SSE 2 mph 7 mph 98% 0.00 in 544 W/m2
08:30 61.7 °F 60 °F 30.10 in SSE 2 mph 7 mph 94% 0.00 in 584 W/m2
08:40 62.5 °F 60.4 °F 30.10 in SSW 2 mph 4 mph 93% 0.00 in 622 W/m2
08:50 63.7 °F 61 °F 30.10 in SSE 2 mph 5 mph 91% 0.00 in 650 W/m2
09:00 65.6 °F 62.2 °F 30.10 in SSW 3 mph 7 mph 89% 0.00 in 677 W/m2
09:10 67.3 °F 62.3 °F 30.10 in SW 6 mph 8 mph 84% 0.00 in 703 W/m2
09:20 68.5 °F 63.2 °F 30.10 in SSW 3 mph 8 mph 83% 0.00 in 626 W/m2
09:30 68.9 °F 62.5 °F 30.10 in SW 3 mph 7 mph 80% 0.00 in 356 W/m2
09:40 68.7 °F 62.3 °F 30.10 in SW 5 mph 7 mph 80% 0.00 in 576 W/m2
09:50 69.5 °F 63 °F 30.10 in SW 3 mph 7 mph 80% 0.00 in 723 W/m2
10:00 70.3 °F 62.8 °F 30.09 in SW 3 mph 6 mph 77% 0.00 in 819 W/m2
10:10 71.1 °F 63.9 °F 30.09 in SW 3 mph 7 mph 78% 0.00 in 839 W/m2
10:20 72 °F 63.6 °F 30.09 in SW 2 mph 7 mph 75% 0.00 in 857 W/m2
10:30 72.5 °F 64.2 °F 30.09 in SW 3 mph 7 mph 75% 0.00 in 875 W/m2
10:40 73.2 °F 64 °F 30.09 in SSW 3 mph 7 mph 73% 0.00 in 423 W/m2
10:50 73 °F 63.9 °F 30.09 in SSW 5 mph 8 mph 73% 0.00 in 906 W/m2
11:00 73.6 °F 64.4 °F 30.08 in South 3 mph 6 mph 73% 0.00 in 425 W/m2
11:30 73.9 °F 63.7 °F 30.08 in SSW 3.5 mph 9 mph 70.5% 0.00 in 707 W/m2
11:40 72.9 °F 64.1 °F 30.08 in SW 5 mph 8 mph 74% 0.00 in 157 W/m2
11:50 71.8 °F 64.2 °F 30.08 in WSW 3 mph 7 mph 77% 0.00 in 192 W/m2
12:00 72 °F 64.4 °F 30.08 in SW 3 mph 7 mph 77% 0.00 in 972 W/m2
12:10 73.5 °F 65.5 °F 30.07 in SW 6 mph 9 mph 76% 0.00 in 705 W/m2
12:20 73.8 °F 65 °F 30.08 in SW 6 mph 12 mph 74% 0.00 in 208 W/m2
12:30 72.3 °F 65.4 °F 30.07 in WSW 8 mph 14 mph 79% 0.00 in 949 W/m2
12:40 72.8 °F 64.4 °F 30.07 in West 6 mph 14 mph 75% 0.00 in 700 W/m2
12:50 73.1 °F 63.9 °F 30.07 in WSW 8 mph 14 mph 73% 0.00 in 974 W/m2
13:00 73.2 °F 64 °F 30.07 in West 8 mph 16 mph 73% 0.00 in 970 W/m2
13:10 72.5 °F 63 °F 30.07 in West 3 mph 16 mph 72% 0.00 in 288 W/m2
13:20 71.8 °F 63.5 °F 30.06 in WNW 7 mph 12 mph 75% 0.00 in 318 W/m2
13:30 71.4 °F 64.6 °F 30.07 in West 7 mph 12 mph 79% 0.00 in 782 W/m2
13:40 72.1 °F 65.3 °F 30.07 in West 5 mph 13 mph 79% 0.00 in 599 W/m2
13:50 72.5 °F 65.2 °F 30.07 in WNW 6 mph 10 mph 78% 0.00 in 351 W/m2
14:00 72 °F 63.6 °F 30.06 in WNW 6 mph 12 mph 75% 0.00 in 196 W/m2
14:10 71.1 °F 63.9 °F 30.06 in WNW 5 mph 10 mph 78% 0.00 in 162 W/m2
14:20 70.5 °F 63.7 °F 30.06 in WNW 2 mph 8 mph 79% 0.00 in 186 W/m2
14:30 70 °F 63.2 °F 30.06 in NW 3 mph 7 mph 79% 0.00 in 181 W/m2
14:40 70 °F 63.2 °F 30.06 in NW 2 mph 7 mph 79% 0.00 in 198 W/m2
14:50 70 °F 63.5 °F 30.06 in North 1 mph 4 mph 80% 0.00 in 344 W/m2
15:00 70.2 °F 63.3 °F 30.06 in NNE 2 mph 6 mph 79% 0.00 in 515 W/m2
15:10 70.5 °F 63.7 °F 30.06 in NE 2 mph 8 mph 79% 0.00 in 354 W/m2
15:20 70.9 °F 63.7 °F 30.06 in NNE 2 mph 4 mph 78% 0.00 in 177 W/m2
15:30 70.9 °F 64 °F 30.06 in Calm   5 mph 79% 0.00 in 194 W/m2
15:40 70.9 °F 64.8 °F 30.06 in North 2 mph 4 mph 81% 0.00 in 279 W/m2
15:50 71.1 °F 64.6 °F 30.06 in North 3 mph 6 mph 80% 0.00 in 247 W/m2
16:00 71.1 °F 63.9 °F 30.06 in North 1 mph 6 mph 78% 0.00 in 217 W/m2
16:10 71.1 °F 63.5 °F 30.06 in NNW 1 mph 3 mph 77% 0.00 in 162 W/m2
16:20 70.9 °F 63.7 °F 30.06 in NNW 1 mph 3 mph 78% 0.00 in 133 W/m2
16:30 70.7 °F 64.2 °F 30.06 in NNW 1 mph 2 mph 80% 0.01 in 149 W/m2
16:40 70.5 °F 64 °F 30.06 in NNW 2 mph 3 mph 80% 0.00 in 183 W/m2
16:50 70.7 °F 64.6 °F 30.06 in Calm   3 mph 81% 0.00 in 200 W/m2
17:00 70.5 °F 63.7 °F 30.06 in NNW 1 mph 2 mph 79% 0.00 in 222 W/m2
17:10 70.5 °F 64.4 °F 30.05 in West 5 mph 6 mph 81% 0.00 in 267 W/m2
17:20 70.3 °F 63.9 °F 30.05 in WNW 2 mph 6 mph 80% 0.00 in 301 W/m2
17:30 70.5 °F 64 °F 30.05 in Calm   2 mph 80% 0.00 in 190 W/m2
17:40 70.7 °F 63.9 °F 30.05 in Calm   1 mph 79% 0.00 in 115 W/m2
17:50 70.4 °F 63.9 °F 30.05 in West 1 mph 3 mph 80% 0.00 in 86 W/m2
18:00 70.3 °F 63.8 °F 30.05 in WSW 2 mph 3 mph 80% 0.00 in 136 W/m2
18:10 70.5 °F 64 °F 30.06 in WSW 2 mph 5 mph 80% 0.00 in 264 W/m2
18:20 70.9 °F 64.4 °F 30.06 in WSW 2 mph 5 mph 80% 0.00 in 185 W/m2
18:30 70.7 °F 63.9 °F 30.06 in WSW 1 mph 3 mph 79% 0.00 in 79 W/m2
18:40 70.6 °F 63.7 °F 30.06 in WSW 1 mph 2 mph 79% 0.00 in 166 W/m2
18:50 70.7 °F 63.9 °F 30.06 in Calm   2 mph 79% 0.00 in 72 W/m2
19:00 70.5 °F 63.4 °F 30.06 in Calm   2 mph 78% 0.00 in 62 W/m2
19:10 70.5 °F 63.7 °F 30.06 in SSW 2 mph 3 mph 79% 0.00 in 68 W/m2
19:20 70.4 °F 63.5 °F 30.06 in WSW 1 mph 3 mph 79% 0.00 in 45 W/m2
19:30 70.2 °F 63.7 °F 30.06 in SW 2 mph 3 mph 80% 0.00 in 36 W/m2
19:40 69.8 °F 64.4 °F 30.06 in SW 2 mph 3 mph 83% 0.00 in 18 W/m2
19:50 69.3 °F 64.2 °F 30.06 in WSW 1 mph 3 mph 84% 0.00 in 9 W/m2
20:00 68.9 °F 64.2 °F 30.07 in SW 1 mph 2 mph 85% 0.00 in 4 W/m2
20:10 68.5 °F 63.8 °F 30.07 in WSW 1 mph 3 mph 85% 0.00 in 2 W/m2
20:20 68 °F 63.3 °F 30.07 in SSW 2 mph 3 mph 85% 0.00 in 0 W/m2
20:30 67.1 °F 62.5 °F 30.07 in South 1 mph 4 mph 85% 0.00 in 0 W/m2
20:40 66.4 °F 61.8 °F 30.07 in SW 1 mph 4 mph 85% 0.00 in 0 W/m2
20:50 66 °F 61.4 °F 30.08 in Calm   2 mph 85% 0.00 in 0 W/m2
21:00 65.8 °F 61.2 °F 30.08 in SSW 1 mph 2 mph 85% 0.00 in 0 W/m2
21:10 65.3 °F 60.7 °F 30.08 in SSE 2 mph 3 mph 85% 0.00 in 0 W/m2
21:20 64.8 °F 60.5 °F 30.08 in South 1 mph 3 mph 86% 0.00 in 0 W/m2
21:30 64.6 °F 60.3 °F 30.08 in Calm   1 mph 86% 0.00 in 0 W/m2
21:40 64 °F 59.8 °F 30.08 in West 2 mph 3 mph 86% 0.00 in 0 W/m2
21:50 63.7 °F 60.1 °F 30.08 in Calm   2 mph 88% 0.00 in 0 W/m2
22:00 63.2 °F 59.5 °F 30.08 in South 1 mph 3 mph 88% 0.00 in 0 W/m2
22:10 62.8 °F 59.5 °F 30.08 in SW 1 mph 2 mph 89% 0.00 in 0 W/m2
22:20 62.4 °F 59.4 °F 30.08 in Calm   2 mph 90% 0.00 in 0 W/m2
22:30 61.9 °F 59.2 °F 30.09 in WSW 2 mph 3 mph 91% 0.00 in 0 W/m2
22:40 61.3 °F 59.3 °F 30.09 in SW 1 mph 3 mph 93% 0.00 in 0 W/m2
22:50 61 °F 59.3 °F 30.08 in Calm   2 mph 94% 0.00 in 0 W/m2
23:00 60.6 °F 58.6 °F 30.08 in Calm   2 mph 93% 0.00 in 0 W/m2
23:10 60.4 °F 58.7 °F 30.08 in Calm   3 mph 94% 0.00 in 0 W/m2
23:20 60.1 °F 58.4 °F 30.08 in NW 1 mph 2 mph 94% 0.00 in 0 W/m2
23:30 59.7 °F 58 °F 30.08 in West 2 mph 4 mph 94% 0.00 in 0 W/m2
23:40 59.2 °F 57.7 °F 30.09 in Calm   5 mph 95% 0.00 in 0 W/m2
23:50 59 °F 57.6 °F 30.08 in NW 2 mph 3 mph 95% 0.00 in 0 W/m2
Knjazevac, Serbia
Compliments of Weather Underground - 2 mb